Time;durP1;ratioP1;P1;durP2;ratioP2;P2;SDS_P1;SDS_P2;PMS_P1;PMS_P2;Temp;Humidity;BMP_temperature;BMP_pressure;BME280_temperature;BME280_humidity;BME280_pressure;Samples;Min_cycle;Max_cycle;Signal;HPM_P1;HPM_P2
2022/04/12 00:01:05;;;;;;;8.80;6.63;;;;;;;;;;5034109;28;20419;-77
2022/04/12 00:03:31;;;;;;;8.00;5.87;;;;;;;;;;4993640;28;1161622;-77
2022/04/12 00:05:57;;;;;;;11.20;6.70;;;;;;;;;;5035012;28;20498;-77
2022/04/12 00:08:23;;;;;;;7.50;5.90;;;;;;;;;;5035104;28;20479;-78
2022/04/12 00:10:50;;;;;;;8.47;6.03;;;;;;;;;;5033536;28;20449;-77
2022/04/12 00:13:18;;;;;;;8.70;6.23;;;;;;;;;;5033476;28;20897;-76
2022/04/12 00:15:44;;;;;;;8.20;5.40;;;;;;;;;;5034906;28;20419;-77
2022/04/12 00:20:55;;;;;;;7.97;5.77;;;;;;;;;;5035007;28;20421;-70
2022/04/12 00:23:21;;;;;;;9.20;5.77;;;;;;;;;;5033351;28;20937;-73
2022/04/12 00:25:47;;;;;;;6.70;5.57;;;;;;;;;;5034659;28;20393;-76
2022/04/12 00:28:14;;;;;;;10.33;6.07;;;;;;;;;;5033340;28;20414;-74
2022/04/12 00:30:41;;;;;;;7.87;5.90;;;;;;;;;;5034299;28;20764;-75
2022/04/12 00:33:07;;;;;;;6.77;5.60;;;;;;;;;;5033861;28;20469;-77
2022/04/12 00:35:33;;;;;;;7.37;5.77;;;;;;;;;;5034555;28;20434;-77
2022/04/12 00:37:59;;;;;;;8.07;6.43;;;;;;;;;;5034427;28;20438;-76
2022/04/12 00:40:25;;;;;;;8.80;6.50;;;;;;;;;;5034492;28;20402;-76
2022/04/12 00:42:52;;;;;;;9.00;5.77;;;;;;;;;;5034369;28;20437;-76
2022/04/12 00:45:18;;;;;;;8.70;5.97;;;;;;;;;;5033018;28;20889;-73
2022/04/12 00:47:44;;;;;;;10.40;6.40;;;;;;;;;;5034303;28;20450;-75
2022/04/12 00:50:11;;;;;;;9.00;6.00;;;;;;;;;;5034125;28;20463;-76
2022/04/12 00:52:43;;;;;;;7.80;5.80;;;;;;;;;;5034044;28;20561;-75
2022/04/12 00:55:09;;;;;;;7.87;5.80;;;;;;;;;;5034061;28;20426;-78
2022/04/12 00:57:36;;;;;;;7.00;5.30;;;;;;;;;;5032740;28;20920;-71
2022/04/12 01:00:04;;;;;;;8.43;6.50;;;;;;;;;;5033971;28;20905;-76
2022/04/12 01:02:30;;;;;;;9.90;5.90;;;;;;;;;;5034104;28;20418;-77
2022/04/12 01:04:56;;;;;;;6.83;5.20;;;;;;;;;;5033848;28;20462;-77
2022/04/12 01:07:22;;;;;;;9.37;6.00;;;;;;;;;;5033990;28;20409;-76
2022/04/12 01:09:48;;;;;;;8.40;5.77;;;;;;;;;;5033831;28;20421;-77
2022/04/12 01:12:18;;;;;;;7.87;5.63;;;;;;;;;;5033610;28;20457;-77
2022/04/12 01:14:44;;;;;;;8.80;5.70;;;;;;;;;;5033807;28;20407;-76
2022/04/12 01:17:12;;;;;;;9.73;6.47;;;;;;;;;;5033765;28;20968;-74
2022/04/12 01:19:38;;;;;;;8.30;6.30;;;;;;;;;;5033808;28;20461;-77
2022/04/12 01:22:05;;;;;;;7.60;5.57;;;;;;;;;;5033570;28;20390;-77
2022/04/12 01:24:32;;;;;;;7.60;5.63;;;;;;;;;;5033801;28;20497;-77
2022/04/12 01:26:58;;;;;;;7.30;5.83;;;;;;;;;;5033632;28;20438;-73
2022/04/12 01:29:24;;;;;;;7.80;6.37;;;;;;;;;;5033582;28;20414;-77
2022/04/12 01:31:50;;;;;;;8.37;6.10;;;;;;;;;;5033257;28;20501;-77
2022/04/12 01:34:16;;;;;;;9.40;6.37;;;;;;;;;;5033423;28;20549;-77
2022/04/12 01:36:42;;;;;;;9.20;6.33;;;;;;;;;;5032325;28;20505;-76
2022/04/12 01:39:08;;;;;;;8.70;6.00;;;;;;;;;;5033487;28;20418;-77
2022/04/12 01:41:34;;;;;;;8.37;6.23;;;;;;;;;;5033384;28;20411;-74
2022/04/12 01:44:00;;;;;;;8.00;5.63;;;;;;;;;;5033175;28;20426;-77
2022/04/12 01:46:29;;;;;;;12.20;8.43;;;;;;;;;;5033442;28;20398;-77
2022/04/12 01:48:55;;;;;;;8.10;6.60;;;;;;;;;;5033419;28;20893;-77
2022/04/12 01:51:21;;;;;;;8.40;6.30;;;;;;;;;;5033157;28;20421;-77
2022/04/12 01:53:47;;;;;;;9.80;6.53;;;;;;;;;;5033026;28;20485;-76
2022/04/12 01:56:13;;;;;;;7.60;6.10;;;;;;;;;;5033259;28;20402;-75
2022/04/12 01:58:42;;;;;;;7.20;5.23;;;;;;;;;;5033263;28;20418;-74
2022/04/12 02:01:08;;;;;;;8.97;6.00;;;;;;;;;;5033068;28;20403;-77
2022/04/12 02:03:34;;;;;;;11.60;5.90;;;;;;;;;;5032890;28;20422;-71
2022/04/12 02:06:00;;;;;;;7.77;5.97;;;;;;;;;;5033247;28;20419;-75
2022/04/12 02:08:26;;;;;;;7.27;6.07;;;;;;;;;;5033219;28;20403;-72
2022/04/12 02:10:52;;;;;;;8.17;6.40;;;;;;;;;;5032933;28;20402;-77
2022/04/12 02:13:18;;;;;;;9.00;5.90;;;;;;;;;;5033094;28;21018;-77
2022/04/12 02:15:44;;;;;;;10.70;5.87;;;;;;;;;;5033204;28;20499;-77
2022/04/12 02:18:10;;;;;;;11.07;5.90;;;;;;;;;;5031806;28;20411;-76
2022/04/12 02:20:36;;;;;;;10.23;6.00;;;;;;;;;;5032913;28;20419;-77
2022/04/12 02:23:02;;;;;;;11.83;7.13;;;;;;;;;;5032939;28;20438;-77
2022/04/12 02:25:28;;;;;;;7.20;5.40;;;;;;;;;;5033017;28;20538;-74
2022/04/12 02:27:54;;;;;;;7.67;5.90;;;;;;;;;;5033132;28;20418;-77
2022/04/12 02:30:20;;;;;;;8.17;5.97;;;;;;;;;;5031723;28;20418;-77
2022/04/12 02:32:46;;;;;;;10.23;7.60;;;;;;;;;;5032804;28;20492;-76
2022/04/12 02:35:12;;;;;;;10.30;5.47;;;;;;;;;;5031625;28;20831;-69
2022/04/12 02:37:39;;;;;;;9.73;6.30;;;;;;;;;;5032980;28;20476;-76
2022/04/12 02:40:05;;;;;;;7.73;5.63;;;;;;;;;;5032703;28;20411;-76
2022/04/12 02:42:31;;;;;;;8.17;6.10;;;;;;;;;;5032804;28;20414;-71
2022/04/12 02:44:57;;;;;;;9.30;5.83;;;;;;;;;;5033115;28;20398;-76
2022/04/12 02:47:24;;;;;;;7.57;5.57;;;;;;;;;;5032854;28;20498;-77
2022/04/12 02:49:50;;;;;;;8.67;5.60;;;;;;;;;;5032668;28;20405;-76
2022/04/12 02:52:16;;;;;;;7.30;5.57;;;;;;;;;;5032508;28;20517;-69
2022/04/12 02:54:43;;;;;;;9.77;6.20;;;;;;;;;;5031677;28;20433;-76
2022/04/12 02:57:09;;;;;;;9.93;6.57;;;;;;;;;;5034822;28;20440;-73
2022/04/12 02:59:35;;;;;;;8.17;5.53;;;;;;;;;;5036354;28;20540;-76
2022/04/12 03:02:01;;;;;;;9.33;5.97;;;;;;;;;;5036267;28;20409;-75
2022/04/12 03:04:27;;;;;;;6.60;5.50;;;;;;;;;;5036244;28;20461;-74
2022/04/12 03:06:53;;;;;;;8.60;5.50;;;;;;;;;;5035082;28;20418;-75
2022/04/12 03:09:20;;;;;;;10.83;6.50;;;;;;;;;;5035659;28;20420;-75
2022/04/12 03:11:46;;;;;;;9.20;6.40;;;;;;;;;;5036278;28;20406;-75
2022/04/12 03:14:12;;;;;;;10.73;5.90;;;;;;;;;;5036109;28;20458;-75
2022/04/12 03:16:38;;;;;;;10.67;6.60;;;;;;;;;;5035990;28;20414;-75
2022/04/12 03:19:04;;;;;;;9.43;6.43;;;;;;;;;;5035929;28;20898;-75
2022/04/12 03:21:30;;;;;;;9.20;6.27;;;;;;;;;;5035945;28;20414;-75
2022/04/12 03:23:56;;;;;;;7.83;6.30;;;;;;;;;;5035853;28;20992;-71
2022/04/12 03:26:22;;;;;;;10.80;6.90;;;;;;;;;;5035724;28;20410;-74
2022/04/12 03:28:48;;;;;;;6.53;5.57;;;;;;;;;;5035788;28;20418;-66
2022/04/12 03:31:14;;;;;;;10.10;5.93;;;;;;;;;;5035648;28;20461;-76
2022/04/12 03:33:40;;;;;;;8.63;6.20;;;;;;;;;;5035610;28;20519;-76
2022/04/12 03:36:06;;;;;;;11.03;6.10;;;;;;;;;;5035719;28;20399;-76
2022/04/12 03:38:35;;;;;;;8.57;6.50;;;;;;;;;;5035956;28;20768;-76
2022/04/12 03:41:03;;;;;;;7.70;6.23;;;;;;;;;;5035534;28;20398;-76
2022/04/12 03:43:29;;;;;;;7.30;6.23;;;;;;;;;;5035664;28;20549;-76
2022/04/12 03:45:55;;;;;;;7.40;6.43;;;;;;;;;;5035500;28;20720;-76
2022/04/12 03:48:21;;;;;;;12.97;6.43;;;;;;;;;;5035512;28;20771;-75
2022/04/12 03:50:47;;;;;;;8.73;5.73;;;;;;;;;;5035262;28;20387;-74
2022/04/12 03:53:13;;;;;;;9.50;6.40;;;;;;;;;;5035193;28;20470;-76
2022/04/12 03:55:40;;;;;;;8.70;6.10;;;;;;;;;;5035368;28;20402;-77
2022/04/12 03:58:06;;;;;;;8.97;6.20;;;;;;;;;;5035224;28;20410;-73
2022/04/12 04:00:33;;;;;;;7.20;5.97;;;;;;;;;;5035213;28;20414;-78
2022/04/12 04:02:59;;;;;;;8.70;6.40;;;;;;;;;;5035223;28;20885;-75
2022/04/12 04:05:26;;;;;;;8.20;5.93;;;;;;;;;;5033786;28;20812;-77
2022/04/12 04:07:52;;;;;;;7.40;5.97;;;;;;;;;;5034009;28;20804;-79
2022/04/12 04:10:18;;;;;;;8.93;6.80;;;;;;;;;;5033608;28;20909;-71
2022/04/12 04:12:44;;;;;;;11.00;6.90;;;;;;;;;;5035017;28;20505;-74
2022/04/12 04:15:14;;;;;;;9.33;5.93;;;;;;;;;;5035005;28;20403;-73
2022/04/12 04:17:41;;;;;;;8.83;6.70;;;;;;;;;;5034892;28;20398;-74
2022/04/12 04:20:08;;;;;;;8.77;5.93;;;;;;;;;;5034699;28;20505;-72
2022/04/12 04:22:34;;;;;;;9.17;5.80;;;;;;;;;;5033582;28;20434;-72
2022/04/12 04:25:00;;;;;;;11.37;6.60;;;;;;;;;;5033409;28;20472;-72
2022/04/12 04:27:28;;;;;;;9.20;6.00;;;;;;;;;;5034602;28;20928;-73
2022/04/12 04:29:55;;;;;;;10.13;6.70;;;;;;;;;;5034491;28;20781;-73
2022/04/12 04:32:22;;;;;;;7.77;5.60;;;;;;;;;;5034653;28;20911;-73
2022/04/12 04:34:48;;;;;;;10.93;6.60;;;;;;;;;;5034788;28;20935;-72
2022/04/12 04:37:14;;;;;;;10.53;7.27;;;;;;;;;;5034956;28;20410;-73
2022/04/12 04:39:40;;;;;;;10.90;6.80;;;;;;;;;;5033264;28;20427;-74
2022/04/12 04:42:06;;;;;;;8.90;6.80;;;;;;;;;;5034491;28;20457;-72
2022/04/12 04:44:32;;;;;;;11.57;6.90;;;;;;;;;;5034335;28;20426;-74
2022/04/12 04:46:58;;;;;;;9.33;6.63;;;;;;;;;;5034133;28;20441;-73
2022/04/12 04:49:25;;;;;;;8.93;6.10;;;;;;;;;;5034042;28;20893;-75
2022/04/12 04:51:51;;;;;;;8.97;6.30;;;;;;;;;;5034247;28;20403;-74
2022/04/12 04:54:17;;;;;;;11.47;6.90;;;;;;;;;;5034065;28;21038;-75
2022/04/12 04:56:43;;;;;;;8.63;6.60;;;;;;;;;;5034119;28;20410;-73
2022/04/12 04:59:12;;;;;;;10.23;7.03;;;;;;;;;;5033931;28;20426;-73
2022/04/12 05:01:39;;;;;;;9.47;6.97;;;;;;;;;;5033951;28;20943;-75
2022/04/12 05:04:05;;;;;;;8.47;6.60;;;;;;;;;;5032378;28;20497;-75
2022/04/12 05:06:31;;;;;;;9.07;7.00;;;;;;;;;;5033761;28;20434;-74
2022/04/12 05:08:57;;;;;;;9.50;6.83;;;;;;;;;;5033610;28;20432;-73
2022/04/12 05:11:23;;;;;;;9.20;6.57;;;;;;;;;;5033601;28;20402;-73
2022/04/12 05:13:49;;;;;;;7.40;6.00;;;;;;;;;;5032498;28;20469;-75
2022/04/12 05:16:15;;;;;;;10.27;6.87;;;;;;;;;;5032608;28;20721;-75
2022/04/12 05:18:41;;;;;;;9.93;6.50;;;;;;;;;;5033519;28;20414;-74
2022/04/12 05:21:07;;;;;;;10.17;6.70;;;;;;;;;;5033434;28;20417;-74
2022/04/12 05:23:33;;;;;;;11.87;6.73;;;;;;;;;;5033572;28;20452;-69
2022/04/12 05:26:00;;;;;;;10.00;6.80;;;;;;;;;;5033608;28;21016;-73
2022/04/12 05:28:26;;;;;;;9.47;6.57;;;;;;;;;;5033280;28;20450;-71
2022/04/12 05:30:52;;;;;;;13.03;6.83;;;;;;;;;;5033506;28;20409;-74
2022/04/12 05:33:18;;;;;;;13.93;7.57;;;;;;;;;;5033481;28;20484;-75
2022/04/12 05:35:44;;;;;;;8.73;6.97;;;;;;;;;;5033521;28;20411;-75
2022/04/12 05:38:10;;;;;;;10.93;7.50;;;;;;;;;;5033320;28;20417;-74
2022/04/12 05:40:36;;;;;;;10.13;7.13;;;;;;;;;;5033355;28;20407;-75
2022/04/12 05:43:02;;;;;;;11.60;8.10;;;;;;;;;;5033415;28;20418;-75
2022/04/12 05:45:28;;;;;;;15.87;7.43;;;;;;;;;;5033197;28;20410;-75
2022/04/12 05:47:55;;;;;;;8.57;7.27;;;;;;;;;;5033147;28;20406;-74
2022/04/12 05:50:25;;;;;;;10.27;6.90;;;;;;;;;;5033079;28;20414;-73
2022/04/12 05:52:52;;;;;;;10.90;6.97;;;;;;;;;;5031655;28;20473;-73
2022/04/12 05:55:19;;;;;;;11.33;7.60;;;;;;;;;;5033258;28;20426;-75
2022/04/12 05:57:49;;;;;;;10.40;6.77;;;;;;;;;;5033085;28;20410;-73
2022/04/12 06:00:15;;;;;;;10.20;7.77;;;;;;;;;;5033044;28;20406;-75
2022/04/12 06:02:41;;;;;;;9.80;7.40;;;;;;;;;;5033011;28;20493;-75
2022/04/12 06:05:07;;;;;;;9.40;7.10;;;;;;;;;;5031491;28;20482;-76
2022/04/12 06:07:34;;;;;;;11.90;7.67;;;;;;;;;;5032922;28;20743;-72
2022/04/12 06:10:01;;;;;;;12.10;7.00;;;;;;;;;;5032847;28;20417;-75
2022/04/12 06:12:27;;;;;;;10.80;7.13;;;;;;;;;;5032837;28;20470;-74
2022/04/12 06:14:53;;;;;;;12.07;7.90;;;;;;;;;;5032898;28;20964;-75
2022/04/12 06:17:19;;;;;;;7.83;6.20;;;;;;;;;;5033096;28;20403;-73
2022/04/12 06:19:45;;;;;;;10.53;7.57;;;;;;;;;;5032807;28;20971;-75
2022/04/12 06:22:11;;;;;;;16.10;7.20;;;;;;;;;;5032747;28;20438;-74
2022/04/12 06:24:39;;;;;;;10.97;7.67;;;;;;;;;;5032863;28;20421;-75
2022/04/12 06:27:05;;;;;;;9.47;6.90;;;;;;;;;;5032774;28;20911;-74
2022/04/12 06:29:32;;;;;;;7.57;6.70;;;;;;;;;;5032659;28;20418;-70
2022/04/12 06:31:58;;;;;;;13.03;8.50;;;;;;;;;;5034726;28;20877;-73
2022/04/12 06:34:24;;;;;;;8.93;6.80;;;;;;;;;;5035460;28;20468;-74
2022/04/12 06:36:50;;;;;;;16.87;8.17;;;;;;;;;;5036507;28;20399;-72
2022/04/12 06:39:16;;;;;;;12.30;7.33;;;;;;;;;;5036714;28;20809;-75
2022/04/12 06:41:42;;;;;;;8.30;6.60;;;;;;;;;;5036522;28;20501;-66
2022/04/12 06:44:08;;;;;;;9.63;6.83;;;;;;;;;;5036516;28;20428;-72
2022/04/12 06:46:34;;;;;;;13.63;7.83;;;;;;;;;;5036481;28;20414;-67
2022/04/12 06:49:00;;;;;;;8.37;6.80;;;;;;;;;;5036181;28;20425;-75
2022/04/12 06:51:26;;;;;;;10.40;7.27;;;;;;;;;;5036442;28;20402;-73
2022/04/12 06:53:52;;;;;;;10.10;7.77;;;;;;;;;;5036318;28;20509;-74
2022/04/12 06:56:18;;;;;;;8.47;6.90;;;;;;;;;;5036395;28;20409;-73
2022/04/12 06:58:44;;;;;;;10.27;7.30;;;;;;;;;;5036224;28;20468;-75
2022/04/12 07:01:10;;;;;;;9.77;7.03;;;;;;;;;;5036150;28;20403;-75
2022/04/12 07:03:36;;;;;;;13.70;7.60;;;;;;;;;;5036007;28;20414;-73
2022/04/12 07:06:02;;;;;;;7.97;6.83;;;;;;;;;;5036112;28;20402;-72
2022/04/12 07:08:28;;;;;;;8.03;6.53;;;;;;;;;;5036048;28;20417;-73
2022/04/12 07:10:54;;;;;;;8.10;7.03;;;;;;;;;;5036123;28;20403;-72
2022/04/12 07:13:20;;;;;;;8.50;6.80;;;;;;;;;;5035930;28;20469;-75
2022/04/12 07:15:46;;;;;;;9.23;6.17;;;;;;;;;;5035942;28;20411;-73
2022/04/12 07:18:12;;;;;;;13.00;7.00;;;;;;;;;;5034554;28;20963;-73
2022/04/12 07:20:38;;;;;;;9.03;6.60;;;;;;;;;;5035838;28;20450;-70
2022/04/12 07:23:04;;;;;;;16.77;7.03;;;;;;;;;;5035752;28;20418;-73
2022/04/12 07:25:30;;;;;;;7.40;6.60;;;;;;;;;;5035751;28;20429;-74
2022/04/12 07:27:56;;;;;;;10.93;6.50;;;;;;;;;;5035652;28;20415;-74
2022/04/12 07:30:22;;;;;;;11.53;6.30;;;;;;;;;;5035549;28;20434;-73
2022/04/12 07:32:48;;;;;;;8.23;6.17;;;;;;;;;;5035561;28;20466;-70
2022/04/12 07:35:14;;;;;;;8.50;6.03;;;;;;;;;;5035458;28;20961;-73
2022/04/12 07:37:43;;;;;;;6.97;6.27;;;;;;;;;;5035559;28;20500;-71
2022/04/12 07:40:09;;;;;;;8.73;6.00;;;;;;;;;;5035468;28;20411;-70
2022/04/12 07:42:35;;;;;;;7.80;6.53;;;;;;;;;;5035140;28;20409;-74
2022/04/12 07:45:02;;;;;;;7.73;6.33;;;;;;;;;;5035405;28;20461;-69
2022/04/12 07:47:28;;;;;;;6.60;6.00;;;;;;;;;;5035379;28;20414;-70
2022/04/12 07:49:54;;;;;;;6.73;5.90;;;;;;;;;;5035162;28;20761;-65
2022/04/12 07:52:20;;;;;;;6.83;5.73;;;;;;;;;;5033844;28;20434;-69
2022/04/12 07:54:46;;;;;;;8.53;6.13;;;;;;;;;;5033854;28;20458;-63
2022/04/12 07:57:13;;;;;;;9.33;6.07;;;;;;;;;;5035359;28;20975;-74
2022/04/12 07:59:39;;;;;;;6.90;5.80;;;;;;;;;;5035214;28;20557;-74
2022/04/12 08:02:05;;;;;;;8.40;5.97;;;;;;;;;;5035029;28;20501;-74
2022/04/12 08:04:31;;;;;;;6.63;5.97;;;;;;;;;;5034940;28;20458;-72
2022/04/12 08:06:57;;;;;;;7.77;5.37;;;;;;;;;;5035066;28;20415;-74
2022/04/12 08:09:23;;;;;;;7.60;6.40;;;;;;;;;;5033611;28;20422;-73
2022/04/12 08:11:49;;;;;;;8.73;6.20;;;;;;;;;;5034888;28;20781;-72
2022/04/12 08:14:15;;;;;;;9.63;6.97;;;;;;;;;;5034710;28;20470;-69
2022/04/12 08:16:41;;;;;;;8.47;5.43;;;;;;;;;;5034872;28;20401;-73
2022/04/12 08:19:07;;;;;;;8.47;6.10;;;;;;;;;;5034712;28;20402;-73
2022/04/12 08:21:34;;;;;;;7.80;6.40;;;;;;;;;;5034671;28;20410;-71
2022/04/12 08:24:00;;;;;;;7.93;5.87;;;;;;;;;;5034529;28;20525;-70
2022/04/12 08:26:26;;;;;;;8.13;5.47;;;;;;;;;;5034539;28;20974;-70
2022/04/12 08:28:52;;;;;;;7.67;6.30;;;;;;;;;;5034385;28;20792;-67
2022/04/12 08:31:18;;;;;;;9.30;5.57;;;;;;;;;;5034385;28;20399;-71
2022/04/12 08:33:44;;;;;;;8.83;5.97;;;;;;;;;;5034375;28;20821;-73
2022/04/12 08:36:10;;;;;;;7.93;6.73;;;;;;;;;;5034529;28;20905;-75
2022/04/12 08:38:36;;;;;;;12.70;5.43;;;;;;;;;;5034460;28;20411;-73
2022/04/12 08:41:03;;;;;;;7.10;5.70;;;;;;;;;;5034221;28;20411;-75
2022/04/12 08:43:29;;;;;;;7.00;5.30;;;;;;;;;;5034217;28;20410;-72
2022/04/12 08:45:56;;;;;;;8.37;5.73;;;;;;;;;;5034162;28;20425;-73
2022/04/12 08:48:23;;;;;;;6.77;5.17;;;;;;;;;;5034270;28;20442;-72
2022/04/12 08:50:49;;;;;;;7.47;5.43;;;;;;;;;;5033946;28;20450;-70
2022/04/12 08:53:17;;;;;;;8.77;5.47;;;;;;;;;;5034321;28;20466;-74
2022/04/12 08:55:43;;;;;;;6.20;5.37;;;;;;;;;;5033609;28;20429;-74
2022/04/12 08:58:09;;;;;;;8.10;5.23;;;;;;;;;;5033933;28;20426;-73
2022/04/12 09:00:35;;;;;;;6.80;4.90;;;;;;;;;;5033880;28;20498;-73
2022/04/12 09:03:03;;;;;;;6.47;4.17;;;;;;;;;;5033983;28;20415;-70
2022/04/12 09:05:32;;;;;;;6.00;4.50;;;;;;;;;;5033835;28;20462;-73
2022/04/12 09:07:58;;;;;;;7.10;6.37;;;;;;;;;;5033927;28;20403;-73
2022/04/12 09:10:37;;;;;;;6.50;4.97;;;;;;;;;;5033767;28;20496;-74
2022/04/12 09:13:09;;;;;;;7.97;4.80;;;;;;;;;;5033809;28;20937;-73
2022/04/12 09:15:41;;;;;;;8.60;4.80;;;;;;;;;;5033761;28;20411;-71
2022/04/12 09:18:09;;;;;;;5.97;5.13;;;;;;;;;;5033747;28;20422;-67
2022/04/12 09:20:35;;;;;;;6.53;3.80;;;;;;;;;;5033537;28;20461;-73
2022/04/12 09:23:01;;;;;;;4.43;3.73;;;;;;;;;;5033680;28;20770;-68
2022/04/12 09:25:27;;;;;;;7.93;4.60;;;;;;;;;;5033537;28;20403;-66
2022/04/12 09:27:55;;;;;;;4.50;3.90;;;;;;;;;;5033565;28;20777;-73
2022/04/12 09:30:22;;;;;;;7.40;4.40;;;;;;;;;;5033148;28;20414;-72
2022/04/12 09:32:49;;;;;;;4.20;3.73;;;;;;;;;;5033387;28;20541;-71
2022/04/12 09:35:16;;;;;;;7.00;4.17;;;;;;;;;;5033442;28;20893;-68
2022/04/12 09:37:43;;;;;;;7.33;4.03;;;;;;;;;;5032062;28;20514;-67
2022/04/12 09:40:14;;;;;;;5.70;4.00;;;;;;;;;;5033212;28;20425;-76
2022/04/12 09:42:50;;;;;;;5.87;3.70;;;;;;;;;;5033279;28;20410;-74
2022/04/12 09:45:16;;;;;;;4.13;3.43;;;;;;;;;;5033324;28;20450;-71
2022/04/12 09:47:42;;;;;;;4.70;3.80;;;;;;;;;;5033236;28;20473;-70
2022/04/12 09:50:09;;;;;;;5.47;3.70;;;;;;;;;;5032901;28;20410;-74
2022/04/12 09:52:35;;;;;;;9.20;3.90;;;;;;;;;;5033001;28;20687;-71
2022/04/12 09:55:01;;;;;;;3.63;3.33;;;;;;;;;;5033243;28;20422;-70
2022/04/12 09:57:27;;;;;;;4.57;3.50;;;;;;;;;;5033181;28;20410;-69
2022/04/12 09:59:55;;;;;;;4.00;3.60;;;;;;;;;;5032962;28;20413;-73
2022/04/12 10:02:22;;;;;;;3.77;3.30;;;;;;;;;;5032996;28;20411;-75
2022/04/12 10:04:50;;;;;;;4.77;3.37;;;;;;;;;;5032677;28;20466;-69
2022/04/12 10:07:18;;;;;;;4.10;2.90;;;;;;;;;;5035786;28;20403;-70
2022/04/12 10:09:44;;;;;;;4.73;3.00;;;;;;;;;;5036934;28;20426;-75
2022/04/12 10:12:10;;;;;;;5.63;3.17;;;;;;;;;;5037082;28;20509;-70
2022/04/12 10:14:37;;;;;;;2.60;2.33;;;;;;;;;;5036786;28;20517;-68
2022/04/12 10:17:04;;;;;;;3.10;2.83;;;;;;;;;;5036900;28;20493;-72
2022/04/12 10:19:30;;;;;;;4.53;2.70;;;;;;;;;;5036802;28;20473;-73
2022/04/12 10:21:56;;;;;;;3.10;2.63;;;;;;;;;;5036780;28;20437;-71
2022/04/12 10:24:23;;;;;;;3.17;2.90;;;;;;;;;;5036655;28;20905;-73
2022/04/12 10:26:49;;;;;;;7.03;2.70;;;;;;;;;;5036769;28;20402;-72
2022/04/12 10:29:15;;;;;;;5.10;3.60;;;;;;;;;;5036620;28;20480;-71
2022/04/12 10:32:00;;;;;;;5.13;3.23;;;;;;;;;;5036525;28;20410;-75
2022/04/12 10:34:26;;;;;;;3.23;2.90;;;;;;;;;;5036259;28;20505;-72
2022/04/12 10:37:04;;;;;;;5.03;3.23;;;;;;;;;;5035075;28;20414;-73
2022/04/12 10:39:36;;;;;;;3.17;2.87;;;;;;;;;;5036262;28;20460;-75
2022/04/12 10:42:05;;;;;;;5.53;2.30;;;;;;;;;;5036324;28;20414;-74
2022/04/12 10:44:38;;;;;;;2.40;2.20;;;;;;;;;;5036226;28;20738;-75
2022/04/12 10:47:04;;;;;;;8.63;2.70;;;;;;;;;;5036163;28;20418;-74
2022/04/12 10:49:35;;;;;;;5.17;2.67;;;;;;;;;;5035820;28;20893;-73
2022/04/12 10:52:01;;;;;;;2.93;2.63;;;;;;;;;;5036099;28;20430;-76
2022/04/12 10:54:35;;;;;;;3.63;2.87;;;;;;;;;;5036339;28;20964;-71
2022/04/12 10:57:19;;;;;;;5.30;3.00;;;;;;;;;;5036280;28;20402;-72
2022/04/12 10:59:53;;;;;;;3.37;2.77;;;;;;;;;;5036299;28;20411;-76
2022/04/12 11:02:20;;;;;;;3.40;2.60;;;;;;;;;;5036262;28;20457;-69
2022/04/12 11:04:46;;;;;;;3.90;2.87;;;;;;;;;;5035987;28;20515;-71
2022/04/12 11:07:28;;;;;;;2.83;2.30;;;;;;;;;;5036178;28;20422;-70
2022/04/12 11:10:12;;;;;;;2.87;2.67;;;;;;;;;;5035925;28;20406;-76
2022/04/12 11:12:42;;;;;;;3.10;2.80;;;;;;;;;;5035795;28;20407;-69
2022/04/12 11:15:28;;;;;;;3.33;2.67;;;;;;;;;;5034619;28;20434;-71
2022/04/12 11:18:13;;;;;;;3.00;2.70;;;;;;;;;;5035256;28;20403;-70
2022/04/12 11:20:41;;;;;;;3.97;2.50;;;;;;;;;;5035781;28;20422;-70
2022/04/12 11:23:09;;;;;;;3.07;2.67;;;;;;;;;;5035858;28;20429;-67
2022/04/12 11:25:36;;;;;;;3.00;2.77;;;;;;;;;;5035856;28;20426;-74
2022/04/12 11:28:02;;;;;;;3.43;2.60;;;;;;;;;;5035744;28;20916;-73
2022/04/12 11:30:29;;;;;;;3.10;2.90;;;;;;;;;;5035595;28;20434;-72
2022/04/12 11:32:55;;;;;;;3.43;2.90;;;;;;;;;;5035606;28;20477;-72
2022/04/12 11:35:23;;;;;;;3.30;2.30;;;;;;;;;;5035708;28;20416;-69
2022/04/12 11:37:49;;;;;;;6.30;3.07;;;;;;;;;;5035646;28;20422;-69
2022/04/12 11:40:15;;;;;;;3.50;2.30;;;;;;;;;;5035464;28;20403;-69
2022/04/12 11:42:43;;;;;;;3.60;2.47;;;;;;;;;;5035444;28;20418;-74
2022/04/12 11:45:10;;;;;;;4.03;2.60;;;;;;;;;;5035480;28;20497;-69
2022/04/12 11:47:39;;;;;;;5.83;2.40;;;;;;;;;;5035434;28;20415;-70
2022/04/12 11:50:14;;;;;;;3.37;2.40;;;;;;;;;;5035293;28;20449;-72
2022/04/12 11:52:40;;;;;;;2.37;2.17;;;;;;;;;;5035213;28;20535;-65
2022/04/12 11:55:07;;;;;;;2.97;2.70;;;;;;;;;;5035315;28;20407;-71
2022/04/12 11:57:33;;;;;;;2.73;2.50;;;;;;;;;;5035267;28;20955;-71
2022/04/12 12:00:00;;;;;;;2.07;1.97;;;;;;;;;;5034986;28;20772;-75
2022/04/12 12:02:27;;;;;;;2.87;2.73;;;;;;;;;;5035049;28;20769;-72
2022/04/12 12:04:56;;;;;;;2.37;2.17;;;;;;;;;;5034783;28;20934;-72
2022/04/12 12:07:22;;;;;;;2.57;2.37;;;;;;;;;;5035080;28;20402;-74
2022/04/12 12:09:58;;;;;;;2.30;2.00;;;;;;;;;;5033520;28;20529;-75
2022/04/12 12:12:37;;;;;;;3.10;2.67;;;;;;;;;;5034867;28;20486;-67
2022/04/12 12:15:22;;;;;;;3.67;2.63;;;;;;;;;;5034816;28;20422;-70
2022/04/12 12:17:50;;;;;;;3.60;2.90;;;;;;;;;;5034742;28;20426;-68
2022/04/12 12:20:17;;;;;;;3.13;2.60;;;;;;;;;;5034551;28;20848;-69
2022/04/12 12:22:43;;;;;;;2.97;2.60;;;;;;;;;;5034639;28;20438;-73
2022/04/12 12:25:12;;;;;;;2.53;2.33;;;;;;;;;;5034714;28;20413;-68
2022/04/12 12:27:41;;;;;;;3.67;2.90;;;;;;;;;;5034594;28;20406;-68
2022/04/12 12:30:17;;;;;;;3.30;2.57;;;;;;;;;;5033437;28;20552;-70
2022/04/12 12:32:44;;;;;;;2.43;2.23;;;;;;;;;;5034374;28;20457;-70
2022/04/12 12:35:17;;;;;;;2.30;2.13;;;;;;;;;;5034525;28;20478;-77
2022/04/12 12:37:44;;;;;;;8.23;2.57;;;;;;;;;;5034403;28;20422;-71
2022/04/12 12:40:24;;;;;;;2.63;2.43;;;;;;;;;;5034290;28;20419;-67
2022/04/12 12:42:51;;;;;;;5.23;2.33;;;;;;;;;;5034179;28;20776;-73
2022/04/12 12:45:18;;;;;;;2.00;1.90;;;;;;;;;;5034102;28;20563;-75
2022/04/12 12:47:44;;;;;;;2.40;2.13;;;;;;;;;;5034107;28;20410;-70
2022/04/12 12:50:14;;;;;;;2.73;2.20;;;;;;;;;;5034146;28;20421;-75
2022/04/12 12:52:43;;;;;;;2.30;2.10;;;;;;;;;;5033944;28;20429;-66
2022/04/12 12:55:13;;;;;;;4.90;2.60;;;;;;;;;;5034006;28;20422;-74
2022/04/12 12:57:49;;;;;;;2.97;2.70;;;;;;;;;;5034136;28;20908;-75
2022/04/12 13:00:16;;;;;;;1.90;1.80;;;;;;;;;;5033943;28;20410;-68
2022/04/12 13:02:42;;;;;;;2.27;2.07;;;;;;;;;;5034002;28;20493;-69
2022/04/12 13:05:10;;;;;;;2.97;2.67;;;;;;;;;;5033753;28;20462;-74
2022/04/12 13:07:37;;;;;;;2.37;2.17;;;;;;;;;;5032656;28;20399;-75
2022/04/12 13:10:07;;;;;;;2.10;1.93;;;;;;;;;;5033738;28;20957;-69
2022/04/12 13:12:33;;;;;;;6.23;2.10;;;;;;;;;;5033751;28;20406;-71
2022/04/12 13:14:59;;;;;;;7.93;3.70;;;;;;;;;;5033452;28;20418;-70
2022/04/12 13:17:25;;;;;;;4.37;2.43;;;;;;;;;;5033487;28;20417;-74
2022/04/12 13:19:51;;;;;;;1.80;1.70;;;;;;;;;;5032126;28;20422;-76
2022/04/12 13:22:18;;;;;;;2.10;2.00;;;;;;;;;;5032219;28;20443;-77
2022/04/12 13:24:44;;;;;;;2.33;1.80;;;;;;;;;;5033437;28;20418;-73
2022/04/12 13:27:10;;;;;;;3.50;2.40;;;;;;;;;;5033494;28;20423;-72
2022/04/12 13:29:36;;;;;;;3.90;2.20;;;;;;;;;;5033451;28;20410;-69
2022/04/12 13:32:02;;;;;;;2.40;2.10;;;;;;;;;;5033480;28;20904;-74
2022/04/12 13:34:28;;;;;;;1.70;1.60;;;;;;;;;;5033228;28;20557;-72
2022/04/12 13:36:54;;;;;;;1.80;1.70;;;;;;;;;;5033353;28;20894;-75
2022/04/12 13:39:20;;;;;;;2.33;2.07;;;;;;;;;;5032056;28;20430;-77
2022/04/12 13:41:48;;;;;;;3.10;1.77;;;;;;;;;;5032834;28;20410;-69
2022/04/12 13:44:15;;;;;;;3.37;1.60;;;;;;;;;;5033148;28;20521;-66
2022/04/12 13:46:41;;;;;;;1.43;1.37;;;;;;;;;;5033033;28;20415;-66
2022/04/12 13:49:07;;;;;;;1.77;1.50;;;;;;;;;;5031659;28;20445;-69
2022/04/12 13:51:33;;;;;;;1.63;1.53;;;;;;;;;;5033175;28;20457;-74
2022/04/12 13:53:59;;;;;;;1.87;1.77;;;;;;;;;;5033024;28;20492;-65
2022/04/12 13:56:25;;;;;;;2.13;1.60;;;;;;;;;;5033208;28;20419;-71
2022/04/12 13:58:52;;;;;;;1.97;1.87;;;;;;;;;;5032890;28;20885;-75
2022/04/12 14:01:18;;;;;;;2.33;1.93;;;;;;;;;;5033138;28;20411;-73
2022/04/12 14:03:44;;;;;;;4.30;1.70;;;;;;;;;;5032966;28;20521;-75
2022/04/12 14:06:10;;;;;;;2.80;1.80;;;;;;;;;;5033020;28;20450;-72
2022/04/12 14:08:36;;;;;;;1.70;1.60;;;;;;;;;;5031656;28;20512;-71
2022/04/12 14:11:03;;;;;;;1.80;1.70;;;;;;;;;;5032883;28;20528;-73
2022/04/12 14:13:29;;;;;;;4.30;1.80;;;;;;;;;;5033020;28;20477;-69
2022/04/12 14:15:56;;;;;;;1.47;1.37;;;;;;;;;;5033052;28;20410;-74
2022/04/12 14:18:22;;;;;;;1.60;1.47;;;;;;;;;;5032949;28;20501;-71
2022/04/12 14:20:48;;;;;;;2.50;2.00;;;;;;;;;;5032931;28;20493;-68
2022/04/12 14:23:14;;;;;;;1.83;1.40;;;;;;;;;;5032896;28;20426;-69
2022/04/12 14:25:41;;;;;;;2.20;1.63;;;;;;;;;;5031716;28;20845;-75
2022/04/12 14:28:13;;;;;;;3.03;1.60;;;;;;;;;;5032893;28;20483;-73
2022/04/12 14:30:39;;;;;;;3.23;1.60;;;;;;;;;;5032721;28;20473;-75
2022/04/12 14:33:06;;;;;;;1.67;1.50;;;;;;;;;;5032678;28;20456;-73
2022/04/12 14:35:33;;;;;;;4.03;1.70;;;;;;;;;;5032634;28;20417;-69
2022/04/12 14:37:59;;;;;;;1.60;1.50;;;;;;;;;;5032983;28;20402;-69
2022/04/12 14:40:25;;;;;;;2.40;1.40;;;;;;;;;;5032633;28;20925;-64
2022/04/12 14:42:51;;;;;;;1.57;1.40;;;;;;;;;;5032658;28;20422;-67